sensor_id;sensor_type;location;lat;lon;timestamp;P1;durP1;ratioP1;P2;durP2;ratioP2
7517;SDS011;3800;48.922;9.444;2023-05-18T00:02:16;6.40;;;5.70;;
7517;SDS011;3800;48.922;9.444;2023-05-18T00:04:45;8.23;;;6.03;;
7517;SDS011;3800;48.922;9.444;2023-05-18T00:07:13;9.03;;;6.17;;
7517;SDS011;3800;48.922;9.444;2023-05-18T00:09:41;8.47;;;6.50;;
7517;SDS011;3800;48.922;9.444;2023-05-18T00:12:09;7.63;;;5.80;;
7517;SDS011;3800;48.922;9.444;2023-05-18T00:14:38;7.87;;;5.77;;
7517;SDS011;3800;48.922;9.444;2023-05-18T00:17:06;7.97;;;5.83;;
7517;SDS011;3800;48.922;9.444;2023-05-18T00:19:34;7.30;;;5.97;;
7517;SDS011;3800;48.922;9.444;2023-05-18T00:22:02;7.57;;;5.87;;
7517;SDS011;3800;48.922;9.444;2023-05-18T00:24:31;6.73;;;5.57;;
7517;SDS011;3800;48.922;9.444;2023-05-18T00:26:59;8.80;;;6.10;;
7517;SDS011;3800;48.922;9.444;2023-05-18T00:29:28;7.17;;;5.77;;
7517;SDS011;3800;48.922;9.444;2023-05-18T00:31:56;8.30;;;6.67;;
7517;SDS011;3800;48.922;9.444;2023-05-18T00:34:24;6.67;;;5.97;;
7517;SDS011;3800;48.922;9.444;2023-05-18T00:36:53;8.17;;;6.17;;
7517;SDS011;3800;48.922;9.444;2023-05-18T00:39:21;8.60;;;6.30;;
7517;SDS011;3800;48.922;9.444;2023-05-18T00:41:50;7.33;;;5.93;;
7517;SDS011;3800;48.922;9.444;2023-05-18T00:44:18;7.80;;;5.90;;
7517;SDS011;3800;48.922;9.444;2023-05-18T00:46:46;7.00;;;6.03;;
7517;SDS011;3800;48.922;9.444;2023-05-18T00:49:15;10.43;;;6.17;;
7517;SDS011;3800;48.922;9.444;2023-05-18T00:51:43;7.50;;;6.30;;
7517;SDS011;3800;48.922;9.444;2023-05-18T00:54:11;7.50;;;5.67;;
7517;SDS011;3800;48.922;9.444;2023-05-18T00:56:39;6.70;;;5.97;;
7517;SDS011;3800;48.922;9.444;2023-05-18T00:59:08;6.63;;;5.90;;
7517;SDS011;3800;48.922;9.444;2023-05-18T01:01:36;7.87;;;6.13;;
7517;SDS011;3800;48.922;9.444;2023-05-18T01:04:04;9.23;;;6.57;;
7517;SDS011;3800;48.922;9.444;2023-05-18T01:06:32;8.40;;;6.50;;
7517;SDS011;3800;48.922;9.444;2023-05-18T01:09:02;7.67;;;6.30;;
7517;SDS011;3800;48.922;9.444;2023-05-18T01:11:37;7.73;;;5.60;;
7517;SDS011;3800;48.922;9.444;2023-05-18T01:14:24;7.77;;;5.90;;
7517;SDS011;3800;48.922;9.444;2023-05-18T01:16:55;8.50;;;5.83;;
7517;SDS011;3800;48.922;9.444;2023-05-18T01:19:42;10.13;;;6.13;;
7517;SDS011;3800;48.922;9.444;2023-05-18T01:24:57;9.37;;;6.13;;
7517;SDS011;3800;48.922;9.444;2023-05-18T01:27:24;7.07;;;6.10;;
7517;SDS011;3800;48.922;9.444;2023-05-18T01:29:52;7.53;;;5.90;;
7517;SDS011;3800;48.922;9.444;2023-05-18T01:32:20;9.43;;;5.70;;
7517;SDS011;3800;48.922;9.444;2023-05-18T01:34:48;7.50;;;6.23;;
7517;SDS011;3800;48.922;9.444;2023-05-18T01:37:17;9.67;;;6.60;;
7517;SDS011;3800;48.922;9.444;2023-05-18T01:39:45;6.47;;;5.67;;
7517;SDS011;3800;48.922;9.444;2023-05-18T01:42:16;9.37;;;6.07;;
7517;SDS011;3800;48.922;9.444;2023-05-18T01:44:44;8.33;;;5.90;;
7517;SDS011;3800;48.922;9.444;2023-05-18T01:47:14;7.23;;;5.60;;
7517;SDS011;3800;48.922;9.444;2023-05-18T01:50:14;7.13;;;6.00;;
7517;SDS011;3800;48.922;9.444;2023-05-18T01:52:52;11.20;;;5.73;;
7517;SDS011;3800;48.922;9.444;2023-05-18T01:55:19;9.10;;;6.50;;
7517;SDS011;3800;48.922;9.444;2023-05-18T01:57:48;7.80;;;5.90;;
7517;SDS011;3800;48.922;9.444;2023-05-18T02:00:17;7.73;;;5.67;;
7517;SDS011;3800;48.922;9.444;2023-05-18T02:02:45;7.77;;;5.60;;
7517;SDS011;3800;48.922;9.444;2023-05-18T02:05:13;8.03;;;5.70;;
7517;SDS011;3800;48.922;9.444;2023-05-18T02:07:42;8.80;;;6.10;;
7517;SDS011;3800;48.922;9.444;2023-05-18T02:10:11;7.87;;;6.03;;
7517;SDS011;3800;48.922;9.444;2023-05-18T02:12:39;8.27;;;6.00;;
7517;SDS011;3800;48.922;9.444;2023-05-18T02:15:08;9.43;;;5.93;;
7517;SDS011;3800;48.922;9.444;2023-05-18T02:17:36;8.23;;;5.90;;
7517;SDS011;3800;48.922;9.444;2023-05-18T02:20:05;10.87;;;5.93;;
7517;SDS011;3800;48.922;9.444;2023-05-18T02:22:34;10.40;;;6.60;;
7517;SDS011;3800;48.922;9.444;2023-05-18T02:25:03;9.40;;;6.13;;
7517;SDS011;3800;48.922;9.444;2023-05-18T02:27:31;10.93;;;6.53;;
7517;SDS011;3800;48.922;9.444;2023-05-18T02:30:00;7.97;;;5.43;;
7517;SDS011;3800;48.922;9.444;2023-05-18T02:32:28;7.80;;;5.80;;
7517;SDS011;3800;48.922;9.444;2023-05-18T02:34:58;6.63;;;5.40;;
7517;SDS011;3800;48.922;9.444;2023-05-18T02:37:27;6.97;;;5.37;;
7517;SDS011;3800;48.922;9.444;2023-05-18T02:39:56;8.00;;;5.43;;
7517;SDS011;3800;48.922;9.444;2023-05-18T02:42:25;6.17;;;5.47;;
7517;SDS011;3800;48.922;9.444;2023-05-18T02:44:53;8.00;;;5.70;;
7517;SDS011;3800;48.922;9.444;2023-05-18T02:47:21;8.30;;;5.80;;
7517;SDS011;3800;48.922;9.444;2023-05-18T02:49:49;8.30;;;5.87;;
7517;SDS011;3800;48.922;9.444;2023-05-18T02:52:18;7.57;;;5.70;;
7517;SDS011;3800;48.922;9.444;2023-05-18T02:54:47;5.50;;;4.53;;
7517;SDS011;3800;48.922;9.444;2023-05-18T02:57:15;8.20;;;5.50;;
7517;SDS011;3800;48.922;9.444;2023-05-18T02:59:43;7.33;;;5.30;;
7517;SDS011;3800;48.922;9.444;2023-05-18T03:02:11;7.20;;;5.27;;
7517;SDS011;3800;48.922;9.444;2023-05-18T03:04:40;8.77;;;5.43;;
7517;SDS011;3800;48.922;9.444;2023-05-18T03:07:08;7.07;;;5.13;;
7517;SDS011;3800;48.922;9.444;2023-05-18T03:09:36;7.07;;;5.37;;
7517;SDS011;3800;48.922;9.444;2023-05-18T03:12:05;7.00;;;5.50;;
7517;SDS011;3800;48.922;9.444;2023-05-18T03:14:34;8.27;;;5.63;;
7517;SDS011;3800;48.922;9.444;2023-05-18T03:17:02;7.33;;;6.00;;
7517;SDS011;3800;48.922;9.444;2023-05-18T03:19:31;8.13;;;6.03;;
7517;SDS011;3800;48.922;9.444;2023-05-18T03:21:59;9.40;;;6.27;;
7517;SDS011;3800;48.922;9.444;2023-05-18T03:24:27;8.93;;;6.17;;
7517;SDS011;3800;48.922;9.444;2023-05-18T03:26:55;11.70;;;7.00;;
7517;SDS011;3800;48.922;9.444;2023-05-18T03:29:24;8.67;;;6.43;;
7517;SDS011;3800;48.922;9.444;2023-05-18T03:31:52;8.13;;;5.63;;
7517;SDS011;3800;48.922;9.444;2023-05-18T03:34:20;8.53;;;5.57;;
7517;SDS011;3800;48.922;9.444;2023-05-18T03:36:48;8.93;;;5.50;;
7517;SDS011;3800;48.922;9.444;2023-05-18T03:39:17;8.60;;;5.50;;
7517;SDS011;3800;48.922;9.444;2023-05-18T03:41:45;7.27;;;5.80;;
7517;SDS011;3800;48.922;9.444;2023-05-18T03:44:13;7.47;;;5.47;;
7517;SDS011;3800;48.922;9.444;2023-05-18T03:46:41;7.53;;;5.23;;
7517;SDS011;3800;48.922;9.444;2023-05-18T03:49:10;9.10;;;5.73;;
7517;SDS011;3800;48.922;9.444;2023-05-18T03:51:38;10.27;;;5.80;;
7517;SDS011;3800;48.922;9.444;2023-05-18T03:54:06;9.63;;;6.23;;
7517;SDS011;3800;48.922;9.444;2023-05-18T03:56:34;11.03;;;5.73;;
7517;SDS011;3800;48.922;9.444;2023-05-18T03:59:03;9.30;;;6.00;;
7517;SDS011;3800;48.922;9.444;2023-05-18T04:01:31;9.87;;;6.30;;
7517;SDS011;3800;48.922;9.444;2023-05-18T04:03:59;7.97;;;5.80;;
7517;SDS011;3800;48.922;9.444;2023-05-18T04:06:27;7.83;;;6.37;;
7517;SDS011;3800;48.922;9.444;2023-05-18T04:08:56;9.53;;;6.30;;
7517;SDS011;3800;48.922;9.444;2023-05-18T04:11:24;9.93;;;6.60;;
7517;SDS011;3800;48.922;9.444;2023-05-18T04:13:52;7.97;;;5.80;;
7517;SDS011;3800;48.922;9.444;2023-05-18T04:16:20;9.00;;;6.10;;
7517;SDS011;3800;48.922;9.444;2023-05-18T04:18:49;9.40;;;5.70;;
7517;SDS011;3800;48.922;9.444;2023-05-18T04:21:17;10.17;;;5.97;;
7517;SDS011;3800;48.922;9.444;2023-05-18T04:23:45;9.93;;;6.13;;
7517;SDS011;3800;48.922;9.444;2023-05-18T04:26:13;7.63;;;5.80;;
7517;SDS011;3800;48.922;9.444;2023-05-18T04:28:42;11.40;;;6.17;;
7517;SDS011;3800;48.922;9.444;2023-05-18T04:31:10;8.83;;;6.17;;
7517;SDS011;3800;48.922;9.444;2023-05-18T04:33:39;10.53;;;5.93;;
7517;SDS011;3800;48.922;9.444;2023-05-18T04:36:07;7.23;;;5.37;;
7517;SDS011;3800;48.922;9.444;2023-05-18T04:38:35;9.53;;;5.93;;
7517;SDS011;3800;48.922;9.444;2023-05-18T04:41:03;8.47;;;5.73;;
7517;SDS011;3800;48.922;9.444;2023-05-18T04:43:31;12.53;;;6.10;;
7517;SDS011;3800;48.922;9.444;2023-05-18T04:46:00;9.57;;;6.33;;
7517;SDS011;3800;48.922;9.444;2023-05-18T04:48:29;7.20;;;5.53;;
7517;SDS011;3800;48.922;9.444;2023-05-18T04:50:56;8.13;;;6.07;;
7517;SDS011;3800;48.922;9.444;2023-05-18T04:53:24;8.87;;;5.43;;
7517;SDS011;3800;48.922;9.444;2023-05-18T04:55:53;7.57;;;5.50;;
7517;SDS011;3800;48.922;9.444;2023-05-18T04:58:22;10.53;;;6.63;;
7517;SDS011;3800;48.922;9.444;2023-05-18T05:00:50;9.13;;;5.87;;
7517;SDS011;3800;48.922;9.444;2023-05-18T05:03:18;7.77;;;5.53;;
7517;SDS011;3800;48.922;9.444;2023-05-18T05:05:46;8.33;;;5.37;;
7517;SDS011;3800;48.922;9.444;2023-05-18T05:08:15;9.60;;;5.47;;
7517;SDS011;3800;48.922;9.444;2023-05-18T05:10:43;6.37;;;5.37;;
7517;SDS011;3800;48.922;9.444;2023-05-18T05:13:11;10.77;;;6.97;;
7517;SDS011;3800;48.922;9.444;2023-05-18T05:15:40;12.23;;;6.13;;
7517;SDS011;3800;48.922;9.444;2023-05-18T05:18:09;14.27;;;6.43;;
7517;SDS011;3800;48.922;9.444;2023-05-18T05:20:38;14.67;;;5.40;;
7517;SDS011;3800;48.922;9.444;2023-05-18T05:23:06;11.30;;;5.83;;
7517;SDS011;3800;48.922;9.444;2023-05-18T05:25:34;7.90;;;5.10;;
7517;SDS011;3800;48.922;9.444;2023-05-18T05:28:02;8.97;;;5.20;;
7517;SDS011;3800;48.922;9.444;2023-05-18T05:30:31;9.17;;;4.80;;
7517;SDS011;3800;48.922;9.444;2023-05-18T05:33:00;12.13;;;4.90;;
7517;SDS011;3800;48.922;9.444;2023-05-18T05:35:28;9.37;;;5.07;;
7517;SDS011;3800;48.922;9.444;2023-05-18T05:37:57;9.70;;;4.40;;
7517;SDS011;3800;48.922;9.444;2023-05-18T05:40:24;6.50;;;4.37;;
7517;SDS011;3800;48.922;9.444;2023-05-18T05:42:53;6.63;;;4.17;;
7517;SDS011;3800;48.922;9.444;2023-05-18T05:45:21;9.23;;;4.30;;
7517;SDS011;3800;48.922;9.444;2023-05-18T05:47:49;8.23;;;4.50;;
7517;SDS011;3800;48.922;9.444;2023-05-18T05:50:17;7.13;;;4.13;;
7517;SDS011;3800;48.922;9.444;2023-05-18T05:52:46;8.03;;;4.50;;
7517;SDS011;3800;48.922;9.444;2023-05-18T05:55:15;8.23;;;4.63;;
7517;SDS011;3800;48.922;9.444;2023-05-18T05:57:43;6.07;;;4.27;;
7517;SDS011;3800;48.922;9.444;2023-05-18T06:00:11;8.37;;;4.00;;
7517;SDS011;3800;48.922;9.444;2023-05-18T06:02:40;6.20;;;4.30;;
7517;SDS011;3800;48.922;9.444;2023-05-18T06:05:08;10.80;;;4.50;;
7517;SDS011;3800;48.922;9.444;2023-05-18T06:07:36;5.93;;;3.70;;
7517;SDS011;3800;48.922;9.444;2023-05-18T06:10:05;9.63;;;3.73;;
7517;SDS011;3800;48.922;9.444;2023-05-18T06:12:33;10.87;;;4.43;;
7517;SDS011;3800;48.922;9.444;2023-05-18T06:15:02;10.83;;;4.30;;
7517;SDS011;3800;48.922;9.444;2023-05-18T06:17:31;9.67;;;3.87;;
7517;SDS011;3800;48.922;9.444;2023-05-18T06:20:00;10.00;;;4.00;;
7517;SDS011;3800;48.922;9.444;2023-05-18T06:22:30;11.10;;;3.93;;
7517;SDS011;3800;48.922;9.444;2023-05-18T06:24:59;7.20;;;4.07;;
7517;SDS011;3800;48.922;9.444;2023-05-18T06:27:27;10.63;;;3.83;;
7517;SDS011;3800;48.922;9.444;2023-05-18T06:29:55;8.00;;;3.57;;
7517;SDS011;3800;48.922;9.444;2023-05-18T06:32:23;7.13;;;3.63;;
7517;SDS011;3800;48.922;9.444;2023-05-18T06:34:52;9.07;;;3.73;;
7517;SDS011;3800;48.922;9.444;2023-05-18T06:37:21;7.70;;;3.63;;
7517;SDS011;3800;48.922;9.444;2023-05-18T06:39:49;7.10;;;4.07;;
7517;SDS011;3800;48.922;9.444;2023-05-18T06:42:17;8.37;;;3.50;;
7517;SDS011;3800;48.922;9.444;2023-05-18T06:44:45;5.30;;;3.17;;
7517;SDS011;3800;48.922;9.444;2023-05-18T06:47:14;9.23;;;3.30;;
7517;SDS011;3800;48.922;9.444;2023-05-18T06:49:42;9.43;;;3.23;;
7517;SDS011;3800;48.922;9.444;2023-05-18T06:52:10;5.50;;;3.10;;
7517;SDS011;3800;48.922;9.444;2023-05-18T06:54:39;7.77;;;3.40;;
7517;SDS011;3800;48.922;9.444;2023-05-18T06:57:07;9.73;;;3.30;;
7517;SDS011;3800;48.922;9.444;2023-05-18T06:59:36;10.53;;;3.40;;
7517;SDS011;3800;48.922;9.444;2023-05-18T07:02:04;9.70;;;3.20;;
7517;SDS011;3800;48.922;9.444;2023-05-18T07:04:32;10.97;;;3.27;;
7517;SDS011;3800;48.922;9.444;2023-05-18T07:07:00;8.90;;;3.23;;
7517;SDS011;3800;48.922;9.444;2023-05-18T07:09:29;5.77;;;2.87;;
7517;SDS011;3800;48.922;9.444;2023-05-18T07:11:57;7.73;;;3.47;;
7517;SDS011;3800;48.922;9.444;2023-05-18T07:14:25;10.33;;;3.10;;
7517;SDS011;3800;48.922;9.444;2023-05-18T07:16:54;9.70;;;3.43;;
7517;SDS011;3800;48.922;9.444;2023-05-18T07:19:22;7.83;;;3.60;;
7517;SDS011;3800;48.922;9.444;2023-05-18T07:21:51;10.17;;;3.70;;
7517;SDS011;3800;48.922;9.444;2023-05-18T07:24:19;6.80;;;3.27;;
7517;SDS011;3800;48.922;9.444;2023-05-18T07:26:47;9.27;;;3.43;;
7517;SDS011;3800;48.922;9.444;2023-05-18T07:29:15;8.50;;;3.57;;
7517;SDS011;3800;48.922;9.444;2023-05-18T07:31:44;7.20;;;2.60;;
7517;SDS011;3800;48.922;9.444;2023-05-18T07:34:13;8.70;;;3.00;;
7517;SDS011;3800;48.922;9.444;2023-05-18T07:36:41;6.43;;;3.13;;
7517;SDS011;3800;48.922;9.444;2023-05-18T07:39:10;6.13;;;3.40;;
7517;SDS011;3800;48.922;9.444;2023-05-18T07:41:38;8.17;;;3.03;;
7517;SDS011;3800;48.922;9.444;2023-05-18T07:44:07;7.83;;;3.13;;
7517;SDS011;3800;48.922;9.444;2023-05-18T07:46:36;7.43;;;3.00;;
7517;SDS011;3800;48.922;9.444;2023-05-18T07:49:04;8.20;;;3.40;;
7517;SDS011;3800;48.922;9.444;2023-05-18T07:51:32;6.93;;;3.00;;
7517;SDS011;3800;48.922;9.444;2023-05-18T07:54:00;8.23;;;3.43;;
7517;SDS011;3800;48.922;9.444;2023-05-18T07:56:29;6.50;;;3.00;;
7517;SDS011;3800;48.922;9.444;2023-05-18T07:58:57;6.17;;;3.17;;
7517;SDS011;3800;48.922;9.444;2023-05-18T08:01:25;7.70;;;2.83;;
7517;SDS011;3800;48.922;9.444;2023-05-18T08:03:53;8.00;;;3.10;;
7517;SDS011;3800;48.922;9.444;2023-05-18T08:06:22;6.33;;;2.83;;
7517;SDS011;3800;48.922;9.444;2023-05-18T08:08:50;10.27;;;2.83;;
7517;SDS011;3800;48.922;9.444;2023-05-18T08:11:18;6.30;;;3.13;;
7517;SDS011;3800;48.922;9.444;2023-05-18T08:13:46;9.60;;;3.17;;
7517;SDS011;3800;48.922;9.444;2023-05-18T08:16:15;9.30;;;3.33;;
7517;SDS011;3800;48.922;9.444;2023-05-18T08:18:44;8.33;;;3.20;;
7517;SDS011;3800;48.922;9.444;2023-05-18T08:21:12;8.30;;;3.10;;
7517;SDS011;3800;48.922;9.444;2023-05-18T08:23:40;8.90;;;3.63;;
7517;SDS011;3800;48.922;9.444;2023-05-18T08:26:08;6.10;;;2.60;;
7517;SDS011;3800;48.922;9.444;2023-05-18T08:28:37;6.20;;;2.83;;
7517;SDS011;3800;48.922;9.444;2023-05-18T08:31:06;6.33;;;2.90;;
7517;SDS011;3800;48.922;9.444;2023-05-18T08:33:34;7.33;;;2.70;;
7517;SDS011;3800;48.922;9.444;2023-05-18T08:36:02;8.80;;;3.07;;
7517;SDS011;3800;48.922;9.444;2023-05-18T08:38:31;11.40;;;3.40;;
7517;SDS011;3800;48.922;9.444;2023-05-18T08:41:01;8.13;;;2.80;;
7517;SDS011;3800;48.922;9.444;2023-05-18T08:43:45;7.70;;;3.30;;
7517;SDS011;3800;48.922;9.444;2023-05-18T08:46:12;5.93;;;3.00;;
7517;SDS011;3800;48.922;9.444;2023-05-18T08:48:41;11.43;;;2.80;;
7517;SDS011;3800;48.922;9.444;2023-05-18T08:51:09;6.30;;;3.23;;
7517;SDS011;3800;48.922;9.444;2023-05-18T08:53:38;7.17;;;2.60;;
7517;SDS011;3800;48.922;9.444;2023-05-18T08:56:07;6.23;;;3.00;;
7517;SDS011;3800;48.922;9.444;2023-05-18T08:58:37;6.53;;;2.83;;
7517;SDS011;3800;48.922;9.444;2023-05-18T09:01:03;7.97;;;3.30;;
7517;SDS011;3800;48.922;9.444;2023-05-18T09:03:32;5.87;;;2.63;;
7517;SDS011;3800;48.922;9.444;2023-05-18T09:06:00;7.30;;;3.07;;
7517;SDS011;3800;48.922;9.444;2023-05-18T09:08:29;7.07;;;3.20;;
7517;SDS011;3800;48.922;9.444;2023-05-18T09:11:00;9.00;;;3.00;;
7517;SDS011;3800;48.922;9.444;2023-05-18T09:13:26;11.27;;;3.00;;
7517;SDS011;3800;48.922;9.444;2023-05-18T09:15:54;6.77;;;2.90;;
7517;SDS011;3800;48.922;9.444;2023-05-18T09:18:22;8.73;;;3.07;;
7517;SDS011;3800;48.922;9.444;2023-05-18T09:20:51;6.93;;;3.00;;
7517;SDS011;3800;48.922;9.444;2023-05-18T09:23:19;8.20;;;3.30;;
7517;SDS011;3800;48.922;9.444;2023-05-18T09:25:48;9.43;;;3.47;;
7517;SDS011;3800;48.922;9.444;2023-05-18T09:28:24;8.87;;;3.30;;
7517;SDS011;3800;48.922;9.444;2023-05-18T09:31:03;6.90;;;3.00;;
7517;SDS011;3800;48.922;9.444;2023-05-18T09:33:32;9.63;;;3.23;;
7517;SDS011;3800;48.922;9.444;2023-05-18T09:36:00;5.43;;;2.70;;
7517;SDS011;3800;48.922;9.444;2023-05-18T09:38:35;7.60;;;3.20;;
7517;SDS011;3800;48.922;9.444;2023-05-18T09:41:08;6.63;;;3.23;;
7517;SDS011;3800;48.922;9.444;2023-05-18T09:43:36;5.63;;;3.07;;
7517;SDS011;3800;48.922;9.444;2023-05-18T09:46:05;6.60;;;3.27;;
7517;SDS011;3800;48.922;9.444;2023-05-18T09:48:35;9.20;;;2.97;;
7517;SDS011;3800;48.922;9.444;2023-05-18T09:51:04;7.80;;;3.20;;
7517;SDS011;3800;48.922;9.444;2023-05-18T09:53:34;7.53;;;3.40;;
7517;SDS011;3800;48.922;9.444;2023-05-18T09:56:03;7.20;;;3.20;;
7517;SDS011;3800;48.922;9.444;2023-05-18T09:58:31;7.30;;;3.23;;
7517;SDS011;3800;48.922;9.444;2023-05-18T10:00:59;7.03;;;3.10;;
7517;SDS011;3800;48.922;9.444;2023-05-18T10:03:30;9.40;;;3.47;;
7517;SDS011;3800;48.922;9.444;2023-05-18T10:06:02;8.70;;;3.07;;
7517;SDS011;3800;48.922;9.444;2023-05-18T10:08:35;9.10;;;3.20;;
7517;SDS011;3800;48.922;9.444;2023-05-18T10:11:03;5.63;;;2.63;;
7517;SDS011;3800;48.922;9.444;2023-05-18T10:13:32;6.37;;;2.83;;
7517;SDS011;3800;48.922;9.444;2023-05-18T10:16:01;6.07;;;3.27;;
7517;SDS011;3800;48.922;9.444;2023-05-18T10:18:30;5.80;;;2.73;;
7517;SDS011;3800;48.922;9.444;2023-05-18T10:20:59;6.17;;;2.97;;
7517;SDS011;3800;48.922;9.444;2023-05-18T10:23:29;8.60;;;3.07;;
7517;SDS011;3800;48.922;9.444;2023-05-18T10:25:56;7.30;;;3.03;;
7517;SDS011;3800;48.922;9.444;2023-05-18T10:28:26;5.13;;;2.93;;
7517;SDS011;3800;48.922;9.444;2023-05-18T10:30:53;5.20;;;2.70;;
7517;SDS011;3800;48.922;9.444;2023-05-18T10:33:21;4.40;;;2.73;;
7517;SDS011;3800;48.922;9.444;2023-05-18T10:35:49;5.63;;;2.97;;
7517;SDS011;3800;48.922;9.444;2023-05-18T10:38:19;7.43;;;2.97;;
7517;SDS011;3800;48.922;9.444;2023-05-18T10:40:50;6.53;;;2.60;;
7517;SDS011;3800;48.922;9.444;2023-05-18T10:43:20;6.93;;;2.57;;
7517;SDS011;3800;48.922;9.444;2023-05-18T10:45:50;7.07;;;2.93;;
7517;SDS011;3800;48.922;9.444;2023-05-18T10:48:19;10.33;;;3.10;;
7517;SDS011;3800;48.922;9.444;2023-05-18T10:50:48;4.30;;;2.47;;
7517;SDS011;3800;48.922;9.444;2023-05-18T10:53:17;7.13;;;2.93;;
7517;SDS011;3800;48.922;9.444;2023-05-18T10:55:46;10.00;;;5.70;;
7517;SDS011;3800;48.922;9.444;2023-05-18T10:58:14;7.40;;;3.87;;
7517;SDS011;3800;48.922;9.444;2023-05-18T11:00:43;6.60;;;3.50;;
7517;SDS011;3800;48.922;9.444;2023-05-18T11:03:12;7.83;;;2.87;;
7517;SDS011;3800;48.922;9.444;2023-05-18T11:05:40;5.33;;;2.90;;
7517;SDS011;3800;48.922;9.444;2023-05-18T11:08:08;4.57;;;2.50;;
7517;SDS011;3800;48.922;9.444;2023-05-18T11:10:41;6.50;;;2.53;;
7517;SDS011;3800;48.922;9.444;2023-05-18T11:13:09;5.07;;;2.57;;
7517;SDS011;3800;48.922;9.444;2023-05-18T11:18:34;5.70;;;2.50;;
7517;SDS011;3800;48.922;9.444;2023-05-18T11:24:17;8.27;;;3.00;;
7517;SDS011;3800;48.922;9.444;2023-05-18T11:26:49;4.30;;;2.60;;
7517;SDS011;3800;48.922;9.444;2023-05-18T11:29:19;6.60;;;2.57;;
7517;SDS011;3800;48.922;9.444;2023-05-18T11:31:52;7.47;;;2.60;;
7517;SDS011;3800;48.922;9.444;2023-05-18T11:37:04;4.90;;;2.23;;
7517;SDS011;3800;48.922;9.444;2023-05-18T11:39:32;6.97;;;3.03;;
7517;SDS011;3800;48.922;9.444;2023-05-18T11:42:04;8.13;;;2.97;;
7517;SDS011;3800;48.922;9.444;2023-05-18T11:44:33;5.77;;;2.57;;
7517;SDS011;3800;48.922;9.444;2023-05-18T11:47:04;4.87;;;2.27;;
7517;SDS011;3800;48.922;9.444;2023-05-18T11:49:37;8.27;;;2.77;;
7517;SDS011;3800;48.922;9.444;2023-05-18T11:52:14;6.30;;;2.70;;
7517;SDS011;3800;48.922;9.444;2023-05-18T11:54:49;8.00;;;2.67;;
7517;SDS011;3800;48.922;9.444;2023-05-18T11:57:20;8.27;;;2.40;;
7517;SDS011;3800;48.922;9.444;2023-05-18T11:59:47;6.60;;;3.00;;
7517;SDS011;3800;48.922;9.444;2023-05-18T12:02:19;7.47;;;2.60;;
7517;SDS011;3800;48.922;9.444;2023-05-18T12:04:50;6.37;;;2.80;;
7517;SDS011;3800;48.922;9.444;2023-05-18T12:07:18;7.33;;;2.47;;
7517;SDS011;3800;48.922;9.444;2023-05-18T12:09:46;8.13;;;2.60;;
7517;SDS011;3800;48.922;9.444;2023-05-18T12:12:15;4.83;;;2.40;;
7517;SDS011;3800;48.922;9.444;2023-05-18T12:14:43;10.60;;;2.70;;
7517;SDS011;3800;48.922;9.444;2023-05-18T12:17:14;9.47;;;2.70;;
7517;SDS011;3800;48.922;9.444;2023-05-18T12:19:43;7.10;;;2.57;;
7517;SDS011;3800;48.922;9.444;2023-05-18T12:22:11;6.37;;;2.50;;
7517;SDS011;3800;48.922;9.444;2023-05-18T12:24:40;7.13;;;2.77;;
7517;SDS011;3800;48.922;9.444;2023-05-18T12:27:08;6.63;;;2.50;;
7517;SDS011;3800;48.922;9.444;2023-05-18T12:29:37;8.10;;;2.57;;
7517;SDS011;3800;48.922;9.444;2023-05-18T12:32:06;8.23;;;2.60;;
7517;SDS011;3800;48.922;9.444;2023-05-18T12:34:36;8.57;;;2.60;;
7517;SDS011;3800;48.922;9.444;2023-05-18T12:37:05;6.50;;;2.40;;
7517;SDS011;3800;48.922;9.444;2023-05-18T12:39:34;7.63;;;2.60;;
7517;SDS011;3800;48.922;9.444;2023-05-18T12:42:10;5.67;;;2.50;;
7517;SDS011;3800;48.922;9.444;2023-05-18T12:44:40;5.70;;;2.30;;
7517;SDS011;3800;48.922;9.444;2023-05-18T12:47:11;7.00;;;2.47;;
7517;SDS011;3800;48.922;9.444;2023-05-18T12:49:39;8.47;;;2.67;;
7517;SDS011;3800;48.922;9.444;2023-05-18T12:52:09;7.17;;;2.53;;
7517;SDS011;3800;48.922;9.444;2023-05-18T12:57:15;5.97;;;2.70;;
7517;SDS011;3800;48.922;9.444;2023-05-18T12:59:46;9.07;;;2.83;;
7517;SDS011;3800;48.922;9.444;2023-05-18T13:05:15;6.00;;;2.53;;
7517;SDS011;3800;48.922;9.444;2023-05-18T13:07:43;6.00;;;2.40;;
7517;SDS011;3800;48.922;9.444;2023-05-18T13:10:17;9.73;;;2.60;;
7517;SDS011;3800;48.922;9.444;2023-05-18T13:12:40;6.47;;;2.30;;
7517;SDS011;3800;48.922;9.444;2023-05-18T13:15:12;5.43;;;2.03;;
7517;SDS011;3800;48.922;9.444;2023-05-18T13:17:53;6.17;;;2.23;;
7517;SDS011;3800;48.922;9.444;2023-05-18T13:20:36;6.03;;;2.67;;
7517;SDS011;3800;48.922;9.444;2023-05-18T13:23:11;7.93;;;2.20;;
7517;SDS011;3800;48.922;9.444;2023-05-18T13:25:39;6.73;;;2.57;;
7517;SDS011;3800;48.922;9.444;2023-05-18T13:28:08;5.23;;;2.17;;
7517;SDS011;3800;48.922;9.444;2023-05-18T13:30:36;7.23;;;2.70;;
7517;SDS011;3800;48.922;9.444;2023-05-18T13:33:05;6.07;;;2.33;;
7517;SDS011;3800;48.922;9.444;2023-05-18T13:35:35;5.57;;;2.27;;
7517;SDS011;3800;48.922;9.444;2023-05-18T13:38:03;6.93;;;2.40;;
7517;SDS011;3800;48.922;9.444;2023-05-18T13:40:32;7.63;;;2.37;;
7517;SDS011;3800;48.922;9.444;2023-05-18T13:43:02;6.27;;;2.70;;
7517;SDS011;3800;48.922;9.444;2023-05-18T13:45:30;5.77;;;2.30;;
7517;SDS011;3800;48.922;9.444;2023-05-18T13:47:59;7.27;;;2.43;;
7517;SDS011;3800;48.922;9.444;2023-05-18T13:50:27;5.57;;;2.60;;
7517;SDS011;3800;48.922;9.444;2023-05-18T13:52:55;5.53;;;2.10;;
7517;SDS011;3800;48.922;9.444;2023-05-18T13:55:24;4.47;;;2.23;;
7517;SDS011;3800;48.922;9.444;2023-05-18T13:57:53;7.40;;;2.27;;
7517;SDS011;3800;48.922;9.444;2023-05-18T14:00:22;7.97;;;2.33;;
7517;SDS011;3800;48.922;9.444;2023-05-18T14:02:50;5.27;;;2.40;;
7517;SDS011;3800;48.922;9.444;2023-05-18T14:05:19;5.57;;;2.40;;
7517;SDS011;3800;48.922;9.444;2023-05-18T14:07:47;7.37;;;2.50;;
7517;SDS011;3800;48.922;9.444;2023-05-18T14:10:15;6.23;;;2.73;;
7517;SDS011;3800;48.922;9.444;2023-05-18T14:12:44;6.77;;;2.60;;
7517;SDS011;3800;48.922;9.444;2023-05-18T14:15:12;8.67;;;2.80;;
7517;SDS011;3800;48.922;9.444;2023-05-18T14:20:38;4.90;;;2.40;;
7517;SDS011;3800;48.922;9.444;2023-05-18T14:23:06;8.43;;;2.30;;
7517;SDS011;3800;48.922;9.444;2023-05-18T14:25:34;5.73;;;2.20;;
7517;SDS011;3800;48.922;9.444;2023-05-18T14:28:03;6.23;;;2.40;;
7517;SDS011;3800;48.922;9.444;2023-05-18T14:30:32;3.90;;;2.10;;
7517;SDS011;3800;48.922;9.444;2023-05-18T14:33:01;2.77;;;1.70;;
7517;SDS011;3800;48.922;9.444;2023-05-18T14:35:29;5.03;;;2.50;;
7517;SDS011;3800;48.922;9.444;2023-05-18T14:37:58;6.07;;;2.50;;
7517;SDS011;3800;48.922;9.444;2023-05-18T14:40:26;5.50;;;2.33;;
7517;SDS011;3800;48.922;9.444;2023-05-18T14:42:55;4.80;;;2.13;;
7517;SDS011;3800;48.922;9.444;2023-05-18T14:45:23;9.07;;;2.50;;
7517;SDS011;3800;48.922;9.444;2023-05-18T14:47:52;9.37;;;2.33;;
7517;SDS011;3800;48.922;9.444;2023-05-18T14:50:20;6.67;;;2.70;;
7517;SDS011;3800;48.922;9.444;2023-05-18T14:52:48;7.17;;;2.17;;
7517;SDS011;3800;48.922;9.444;2023-05-18T14:55:17;5.57;;;2.33;;
7517;SDS011;3800;48.922;9.444;2023-05-18T14:57:45;8.03;;;2.53;;
7517;SDS011;3800;48.922;9.444;2023-05-18T15:00:14;5.70;;;1.97;;
7517;SDS011;3800;48.922;9.444;2023-05-18T15:02:43;5.03;;;2.30;;
7517;SDS011;3800;48.922;9.444;2023-05-18T15:05:11;7.23;;;2.43;;
7517;SDS011;3800;48.922;9.444;2023-05-18T15:07:40;5.00;;;2.27;;
7517;SDS011;3800;48.922;9.444;2023-05-18T15:10:08;4.83;;;2.47;;
7517;SDS011;3800;48.922;9.444;2023-05-18T15:12:36;5.57;;;2.50;;
7517;SDS011;3800;48.922;9.444;2023-05-18T15:15:05;6.53;;;2.50;;
7517;SDS011;3800;48.922;9.444;2023-05-18T15:17:34;5.47;;;2.60;;
7517;SDS011;3800;48.922;9.444;2023-05-18T15:20:02;6.03;;;2.20;;
7517;SDS011;3800;48.922;9.444;2023-05-18T15:22:31;5.57;;;2.37;;
7517;SDS011;3800;48.922;9.444;2023-05-18T15:24:59;6.60;;;2.40;;
7517;SDS011;3800;48.922;9.444;2023-05-18T15:27:28;7.27;;;2.70;;
7517;SDS011;3800;48.922;9.444;2023-05-18T15:29:56;7.00;;;2.40;;
7517;SDS011;3800;48.922;9.444;2023-05-18T15:32:25;8.10;;;2.60;;
7517;SDS011;3800;48.922;9.444;2023-05-18T15:34:54;5.77;;;2.50;;
7517;SDS011;3800;48.922;9.444;2023-05-18T15:37:24;6.23;;;2.97;;
7517;SDS011;3800;48.922;9.444;2023-05-18T15:39:52;5.47;;;2.40;;
7517;SDS011;3800;48.922;9.444;2023-05-18T15:42:20;4.33;;;2.60;;
7517;SDS011;3800;48.922;9.444;2023-05-18T15:44:49;6.87;;;2.60;;
7517;SDS011;3800;48.922;9.444;2023-05-18T15:47:17;6.40;;;2.47;;